Aviation Digital Data Service (ADDS)

Output produced by TAFs form (2011 UTC 05 March 2015)
found at http://www.aviationweather.gov/adds/tafs/
 
KIAD 051932Z 0520/0624 35008G16KT 1/4SM +SN OVC005 
     FM052100 34008G16KT 2SM -SN OVC015 
     FM052300 33007KT 6SM -SN BKN025 
     FM060200 33004KT P6SM SCT050 
     FM061400 34008KT P6SM FEW250